sensor_id;sensor_type;location;lat;lon;timestamp;temperature;humidity
19174;DHT22;9719;49.322;8.536;2023-04-29T00:03:51;15.00;99.90
19174;DHT22;9719;49.322;8.536;2023-04-29T00:08:54;15.00;99.90
19174;DHT22;9719;49.322;8.536;2023-04-29T00:13:56;14.80;99.90
19174;DHT22;9719;49.322;8.536;2023-04-29T00:18:57;14.80;99.90
19174;DHT22;9719;49.322;8.536;2023-04-29T00:24:01;14.70;99.90
19174;DHT22;9719;49.322;8.536;2023-04-29T00:29:03;14.70;99.90
19174;DHT22;9719;49.322;8.536;2023-04-29T00:34:04;14.70;99.90
19174;DHT22;9719;49.322;8.536;2023-04-29T00:39:07;14.70;99.90
19174;DHT22;9719;49.322;8.536;2023-04-29T00:44:09;14.70;99.90
19174;DHT22;9719;49.322;8.536;2023-04-29T00:49:12;14.70;99.90
19174;DHT22;9719;49.322;8.536;2023-04-29T00:54:16;14.70;99.90
19174;DHT22;9719;49.322;8.536;2023-04-29T00:59:19;14.70;99.90
19174;DHT22;9719;49.322;8.536;2023-04-29T01:04:22;14.80;99.90
19174;DHT22;9719;49.322;8.536;2023-04-29T01:09:33;14.80;99.90
19174;DHT22;9719;49.322;8.536;2023-04-29T01:14:42;14.80;99.90
19174;DHT22;9719;49.322;8.536;2023-04-29T01:19:47;14.90;99.90
19174;DHT22;9719;49.322;8.536;2023-04-29T01:24:52;14.90;99.90
19174;DHT22;9719;49.322;8.536;2023-04-29T01:29:59;14.90;99.90
19174;DHT22;9719;49.322;8.536;2023-04-29T01:35:10;14.90;99.90
19174;DHT22;9719;49.322;8.536;2023-04-29T01:40:19;14.90;99.90
19174;DHT22;9719;49.322;8.536;2023-04-29T01:45:23;15.00;99.90
19174;DHT22;9719;49.322;8.536;2023-04-29T01:50:25;15.00;99.90
19174;DHT22;9719;49.322;8.536;2023-04-29T01:55:28;15.00;99.90
19174;DHT22;9719;49.322;8.536;2023-04-29T02:00:30;15.00;99.90
19174;DHT22;9719;49.322;8.536;2023-04-29T02:05:32;15.10;99.90
19174;DHT22;9719;49.322;8.536;2023-04-29T02:10:35;15.10;99.90
19174;DHT22;9719;49.322;8.536;2023-04-29T02:15:36;15.10;99.90
19174;DHT22;9719;49.322;8.536;2023-04-29T02:20:38;15.10;99.90
19174;DHT22;9719;49.322;8.536;2023-04-29T02:25:41;15.10;99.90
19174;DHT22;9719;49.322;8.536;2023-04-29T02:30:43;15.10;99.90
19174;DHT22;9719;49.322;8.536;2023-04-29T02:35:45;15.10;99.90
19174;DHT22;9719;49.322;8.536;2023-04-29T02:40:48;15.10;99.90
19174;DHT22;9719;49.322;8.536;2023-04-29T02:45:49;15.10;99.90
19174;DHT22;9719;49.322;8.536;2023-04-29T02:50:51;15.10;99.90
19174;DHT22;9719;49.322;8.536;2023-04-29T02:55:54;15.10;99.90
19174;DHT22;9719;49.322;8.536;2023-04-29T03:00:56;15.10;99.90
19174;DHT22;9719;49.322;8.536;2023-04-29T03:05:58;15.10;99.90
19174;DHT22;9719;49.322;8.536;2023-04-29T03:11:01;15.10;99.90
19174;DHT22;9719;49.322;8.536;2023-04-29T03:16:03;15.10;99.90
19174;DHT22;9719;49.322;8.536;2023-04-29T03:21:06;15.10;99.90
19174;DHT22;9719;49.322;8.536;2023-04-29T03:26:09;15.10;99.90
19174;DHT22;9719;49.322;8.536;2023-04-29T03:31:10;15.10;99.90
19174;DHT22;9719;49.322;8.536;2023-04-29T03:36:15;15.10;99.90
19174;DHT22;9719;49.322;8.536;2023-04-29T03:41:18;15.10;99.90
19174;DHT22;9719;49.322;8.536;2023-04-29T03:46:20;15.10;99.90
19174;DHT22;9719;49.322;8.536;2023-04-29T03:51:22;15.00;99.90
19174;DHT22;9719;49.322;8.536;2023-04-29T03:56:25;15.00;99.90
19174;DHT22;9719;49.322;8.536;2023-04-29T04:01:27;14.90;99.90
19174;DHT22;9719;49.322;8.536;2023-04-29T04:06:28;14.80;99.90
19174;DHT22;9719;49.322;8.536;2023-04-29T04:11:32;14.80;99.90
19174;DHT22;9719;49.322;8.536;2023-04-29T04:16:33;14.70;99.90
19174;DHT22;9719;49.322;8.536;2023-04-29T04:21:35;14.70;99.90
19174;DHT22;9719;49.322;8.536;2023-04-29T04:26:38;14.70;99.90
19174;DHT22;9719;49.322;8.536;2023-04-29T04:31:40;14.60;99.90
19174;DHT22;9719;49.322;8.536;2023-04-29T04:36:42;14.60;99.90
19174;DHT22;9719;49.322;8.536;2023-04-29T04:41:46;14.50;99.90
19174;DHT22;9719;49.322;8.536;2023-04-29T04:46:49;14.50;99.90
19174;DHT22;9719;49.322;8.536;2023-04-29T04:51:51;14.50;99.90
19174;DHT22;9719;49.322;8.536;2023-04-29T04:56:54;14.50;99.90
19174;DHT22;9719;49.322;8.536;2023-04-29T05:01:55;14.40;99.90
19174;DHT22;9719;49.322;8.536;2023-04-29T05:06:57;14.40;99.90
19174;DHT22;9719;49.322;8.536;2023-04-29T05:12:00;14.40;99.90
19174;DHT22;9719;49.322;8.536;2023-04-29T05:17:02;14.60;99.90
19174;DHT22;9719;49.322;8.536;2023-04-29T05:22:03;14.70;99.90
19174;DHT22;9719;49.322;8.536;2023-04-29T05:27:06;14.70;99.90
19174;DHT22;9719;49.322;8.536;2023-04-29T05:32:10;14.70;99.90
19174;DHT22;9719;49.322;8.536;2023-04-29T05:37:12;14.70;99.90
19174;DHT22;9719;49.322;8.536;2023-04-29T05:42:15;14.80;99.90
19174;DHT22;9719;49.322;8.536;2023-04-29T05:47:17;15.10;99.90
19174;DHT22;9719;49.322;8.536;2023-04-29T05:52:19;15.20;99.90
19174;DHT22;9719;49.322;8.536;2023-04-29T05:57:22;15.40;99.90
19174;DHT22;9719;49.322;8.536;2023-04-29T09:31:57;17.40;99.90
19174;DHT22;9719;49.322;8.536;2023-04-29T09:36:59;17.60;99.90
19174;DHT22;9719;49.322;8.536;2023-04-29T09:42:01;17.60;99.90
19174;DHT22;9719;49.322;8.536;2023-04-29T09:47:05;17.50;99.90
19174;DHT22;9719;49.322;8.536;2023-04-29T09:52:08;17.40;99.90
19174;DHT22;9719;49.322;8.536;2023-04-29T09:57:11;17.30;99.90
19174;DHT22;9719;49.322;8.536;2023-04-29T10:02:17;17.30;99.90
19174;DHT22;9719;49.322;8.536;2023-04-29T10:07:19;17.30;99.90
19174;DHT22;9719;49.322;8.536;2023-04-29T10:12:21;17.40;99.90
19174;DHT22;9719;49.322;8.536;2023-04-29T10:17:34;17.50;99.90
19174;DHT22;9719;49.322;8.536;2023-04-29T10:22:44;17.80;99.90
19174;DHT22;9719;49.322;8.536;2023-04-29T10:27:47;18.30;99.90
19174;DHT22;9719;49.322;8.536;2023-04-29T10:32:52;18.80;99.90
19174;DHT22;9719;49.322;8.536;2023-04-29T10:37:59;19.10;99.90
19174;DHT22;9719;49.322;8.536;2023-04-29T10:43:02;19.30;99.90
19174;DHT22;9719;49.322;8.536;2023-04-29T10:48:15;19.50;99.90
19174;DHT22;9719;49.322;8.536;2023-04-29T10:53:19;19.90;99.90
19174;DHT22;9719;49.322;8.536;2023-04-29T10:58:34;20.10;99.90
19174;DHT22;9719;49.322;8.536;2023-04-29T11:03:48;20.30;99.90
19174;DHT22;9719;49.322;8.536;2023-04-29T11:09:01;20.40;99.90
19174;DHT22;9719;49.322;8.536;2023-04-29T11:14:03;20.20;99.90
19174;DHT22;9719;49.322;8.536;2023-04-29T11:19:09;20.30;99.90
19174;DHT22;9719;49.322;8.536;2023-04-29T11:24:12;20.30;99.90
19174;DHT22;9719;49.322;8.536;2023-04-29T11:29:17;20.30;99.90
19174;DHT22;9719;49.322;8.536;2023-04-29T11:34:24;20.30;99.90
19174;DHT22;9719;49.322;8.536;2023-04-29T11:39:26;20.30;99.90
19174;DHT22;9719;49.322;8.536;2023-04-29T11:44:27;20.50;99.90
19174;DHT22;9719;49.322;8.536;2023-04-29T11:49:31;20.70;99.90
19174;DHT22;9719;49.322;8.536;2023-04-29T11:54:33;20.90;99.90
19174;DHT22;9719;49.322;8.536;2023-04-29T11:59:35;21.00;99.90
19174;DHT22;9719;49.322;8.536;2023-04-29T12:04:45;21.00;99.30
19174;DHT22;9719;49.322;8.536;2023-04-29T12:09:47;20.90;98.50
19174;DHT22;9719;49.322;8.536;2023-04-29T12:14:49;20.80;99.20
19174;DHT22;9719;49.322;8.536;2023-04-29T12:19:52;20.60;99.30
19174;DHT22;9719;49.322;8.536;2023-04-29T12:24:56;20.30;99.90
19174;DHT22;9719;49.322;8.536;2023-04-29T12:29:57;20.20;98.90
19174;DHT22;9719;49.322;8.536;2023-04-29T12:35:01;19.90;98.20
19174;DHT22;9719;49.322;8.536;2023-04-29T12:40:03;19.60;97.20
19174;DHT22;9719;49.322;8.536;2023-04-29T12:45:05;19.70;99.50
19174;DHT22;9719;49.322;8.536;2023-04-29T12:50:10;19.70;97.50
19174;DHT22;9719;49.322;8.536;2023-04-29T12:55:11;19.70;97.10
19174;DHT22;9719;49.322;8.536;2023-04-29T13:00:13;19.60;96.30
19174;DHT22;9719;49.322;8.536;2023-04-29T13:05:17;19.30;96.40
19174;DHT22;9719;49.322;8.536;2023-04-29T13:10:19;19.10;97.00
19174;DHT22;9719;49.322;8.536;2023-04-29T13:15:20;19.10;99.10
19174;DHT22;9719;49.322;8.536;2023-04-29T13:20:23;19.30;99.70
19174;DHT22;9719;49.322;8.536;2023-04-29T13:25:25;19.30;99.90
19174;DHT22;9719;49.322;8.536;2023-04-29T13:30:27;19.30;99.10
19174;DHT22;9719;49.322;8.536;2023-04-29T13:35:30;19.10;99.20
19174;DHT22;9719;49.322;8.536;2023-04-29T13:40:35;19.10;99.00
19174;DHT22;9719;49.322;8.536;2023-04-29T13:45:36;19.20;99.90
19174;DHT22;9719;49.322;8.536;2023-04-29T13:50:39;19.20;99.90
19174;DHT22;9719;49.322;8.536;2023-04-29T13:55:41;19.30;99.90
19174;DHT22;9719;49.322;8.536;2023-04-29T14:00:43;19.40;99.90
19174;DHT22;9719;49.322;8.536;2023-04-29T14:05:46;19.40;99.90
19174;DHT22;9719;49.322;8.536;2023-04-29T14:10:47;19.40;99.40
19174;DHT22;9719;49.322;8.536;2023-04-29T14:15:49;19.10;98.90
19174;DHT22;9719;49.322;8.536;2023-04-29T14:20:52;19.00;98.60
19174;DHT22;9719;49.322;8.536;2023-04-29T14:25:55;19.10;99.20
19174;DHT22;9719;49.322;8.536;2023-04-29T14:30:56;19.10;99.10
19174;DHT22;9719;49.322;8.536;2023-04-29T14:35:59;19.10;99.30
19174;DHT22;9719;49.322;8.536;2023-04-29T14:41:01;19.00;99.30
19174;DHT22;9719;49.322;8.536;2023-04-29T14:46:03;19.00;99.00
19174;DHT22;9719;49.322;8.536;2023-04-29T14:51:07;19.10;99.60
19174;DHT22;9719;49.322;8.536;2023-04-29T14:56:08;19.10;99.90
19174;DHT22;9719;49.322;8.536;2023-04-29T15:01:10;19.20;99.90
19174;DHT22;9719;49.322;8.536;2023-04-29T15:06:13;19.30;99.90
19174;DHT22;9719;49.322;8.536;2023-04-29T15:11:15;19.40;99.90
19174;DHT22;9719;49.322;8.536;2023-04-29T15:16:17;19.40;99.90
19174;DHT22;9719;49.322;8.536;2023-04-29T15:21:20;19.20;99.70
19174;DHT22;9719;49.322;8.536;2023-04-29T15:26:22;18.80;99.90
19174;DHT22;9719;49.322;8.536;2023-04-29T15:31:24;18.90;99.90
19174;DHT22;9719;49.322;8.536;2023-04-29T15:36:28;19.00;99.90
19174;DHT22;9719;49.322;8.536;2023-04-29T15:41:32;19.30;99.90
19174;DHT22;9719;49.322;8.536;2023-04-29T15:46:33;19.70;99.90
19174;DHT22;9719;49.322;8.536;2023-04-29T15:51:37;20.00;99.90
19174;DHT22;9719;49.322;8.536;2023-04-29T15:56:39;20.10;99.30
19174;DHT22;9719;49.322;8.536;2023-04-29T16:01:41;20.00;98.40
19174;DHT22;9719;49.322;8.536;2023-04-29T16:06:44;19.90;96.70
19174;DHT22;9719;49.322;8.536;2023-04-29T16:11:46;19.90;96.90
19174;DHT22;9719;49.322;8.536;2023-04-29T16:16:47;19.60;97.30
19174;DHT22;9719;49.322;8.536;2023-04-29T16:21:50;19.30;97.50
19174;DHT22;9719;49.322;8.536;2023-04-29T16:26:52;19.10;99.00
19174;DHT22;9719;49.322;8.536;2023-04-29T16:31:54;18.80;97.90
19174;DHT22;9719;49.322;8.536;2023-04-29T16:36:57;18.50;99.90
19174;DHT22;9719;49.322;8.536;2023-04-29T16:41:58;18.20;99.90
19174;DHT22;9719;49.322;8.536;2023-04-29T16:47:00;17.90;99.90
19174;DHT22;9719;49.322;8.536;2023-04-29T16:52:04;17.70;99.90
19174;DHT22;9719;49.322;8.536;2023-04-29T16:57:06;17.50;99.90
19174;DHT22;9719;49.322;8.536;2023-04-29T17:02:08;17.30;99.90
19174;DHT22;9719;49.322;8.536;2023-04-29T17:07:11;17.20;99.90
19174;DHT22;9719;49.322;8.536;2023-04-29T17:12:13;17.20;99.90
19174;DHT22;9719;49.322;8.536;2023-04-29T17:17:15;17.10;99.90
19174;DHT22;9719;49.322;8.536;2023-04-29T17:22:19;17.00;99.90
19174;DHT22;9719;49.322;8.536;2023-04-29T17:27:21;17.00;99.90
19174;DHT22;9719;49.322;8.536;2023-04-29T17:32:23;17.00;99.90
19174;DHT22;9719;49.322;8.536;2023-04-29T17:37:29;16.90;99.90
19174;DHT22;9719;49.322;8.536;2023-04-29T17:42:31;16.90;99.90
19174;DHT22;9719;49.322;8.536;2023-04-29T17:47:33;16.80;99.90
19174;DHT22;9719;49.322;8.536;2023-04-29T17:52:37;16.70;99.90
19174;DHT22;9719;49.322;8.536;2023-04-29T17:57:38;16.60;99.90
19174;DHT22;9719;49.322;8.536;2023-04-29T18:02:41;16.40;99.90
19174;DHT22;9719;49.322;8.536;2023-04-29T18:07:44;16.30;99.90
19174;DHT22;9719;49.322;8.536;2023-04-29T18:12:45;16.30;99.90
19174;DHT22;9719;49.322;8.536;2023-04-29T18:17:47;16.20;99.90
19174;DHT22;9719;49.322;8.536;2023-04-29T18:22:51;16.20;99.90
19174;DHT22;9719;49.322;8.536;2023-04-29T18:27:53;16.20;99.90
19174;DHT22;9719;49.322;8.536;2023-04-29T18:32:55;16.10;99.90
19174;DHT22;9719;49.322;8.536;2023-04-29T18:37:58;16.10;99.90
19174;DHT22;9719;49.322;8.536;2023-04-29T18:43:00;16.10;99.90
19174;DHT22;9719;49.322;8.536;2023-04-29T18:48:02;16.00;99.90
19174;DHT22;9719;49.322;8.536;2023-04-29T18:53:07;16.00;99.90
19174;DHT22;9719;49.322;8.536;2023-04-29T18:58:09;15.90;99.90
19174;DHT22;9719;49.322;8.536;2023-04-29T19:03:11;15.80;99.90
19174;DHT22;9719;49.322;8.536;2023-04-29T19:08:14;15.80;99.90
19174;DHT22;9719;49.322;8.536;2023-04-29T19:13:16;15.70;99.90
19174;DHT22;9719;49.322;8.536;2023-04-29T19:18:18;15.60;99.90
19174;DHT22;9719;49.322;8.536;2023-04-29T19:23:23;15.60;99.90
19174;DHT22;9719;49.322;8.536;2023-04-29T19:28:25;15.50;99.90
19174;DHT22;9719;49.322;8.536;2023-04-29T19:33:26;15.50;99.90
19174;DHT22;9719;49.322;8.536;2023-04-29T19:38:29;15.40;99.90
19174;DHT22;9719;49.322;8.536;2023-04-29T19:43:31;15.40;99.90
19174;DHT22;9719;49.322;8.536;2023-04-29T19:48:33;15.30;99.90
19174;DHT22;9719;49.322;8.536;2023-04-29T19:53:36;15.30;99.90
19174;DHT22;9719;49.322;8.536;2023-04-29T19:58:38;15.30;99.90
19174;DHT22;9719;49.322;8.536;2023-04-29T20:03:40;15.20;99.90
19174;DHT22;9719;49.322;8.536;2023-04-29T20:08:43;15.10;99.90
19174;DHT22;9719;49.322;8.536;2023-04-29T20:13:45;15.10;99.90
19174;DHT22;9719;49.322;8.536;2023-04-29T20:18:47;15.10;99.90
19174;DHT22;9719;49.322;8.536;2023-04-29T20:23:50;15.10;99.90
19174;DHT22;9719;49.322;8.536;2023-04-29T20:28:52;15.10;99.90
19174;DHT22;9719;49.322;8.536;2023-04-29T20:33:53;15.10;99.90
19174;DHT22;9719;49.322;8.536;2023-04-29T20:38:56;15.10;99.90
19174;DHT22;9719;49.322;8.536;2023-04-29T20:43:58;15.10;99.90
19174;DHT22;9719;49.322;8.536;2023-04-29T20:48:59;15.10;99.90
19174;DHT22;9719;49.322;8.536;2023-04-29T20:54:03;15.10;99.90
19174;DHT22;9719;49.322;8.536;2023-04-29T20:59:04;15.10;99.90
19174;DHT22;9719;49.322;8.536;2023-04-29T21:04:06;15.00;99.90
19174;DHT22;9719;49.322;8.536;2023-04-29T21:09:09;15.00;99.90
19174;DHT22;9719;49.322;8.536;2023-04-29T21:14:11;14.90;99.90
19174;DHT22;9719;49.322;8.536;2023-04-29T21:19:13;14.90;99.90
19174;DHT22;9719;49.322;8.536;2023-04-29T21:24:16;14.90;99.90
19174;DHT22;9719;49.322;8.536;2023-04-29T21:29:18;14.90;99.90
19174;DHT22;9719;49.322;8.536;2023-04-29T21:34:19;14.90;99.90
19174;DHT22;9719;49.322;8.536;2023-04-29T21:39:22;15.00;99.90
19174;DHT22;9719;49.322;8.536;2023-04-29T21:44:24;15.00;99.90
19174;DHT22;9719;49.322;8.536;2023-04-29T21:49:26;15.00;99.90
19174;DHT22;9719;49.322;8.536;2023-04-29T21:54:29;15.00;99.90
19174;DHT22;9719;49.322;8.536;2023-04-29T21:59:31;14.90;99.90
19174;DHT22;9719;49.322;8.536;2023-04-29T22:04:34;14.90;99.90
19174;DHT22;9719;49.322;8.536;2023-04-29T22:09:36;14.80;99.90
19174;DHT22;9719;49.322;8.536;2023-04-29T22:14:38;14.70;99.90
19174;DHT22;9719;49.322;8.536;2023-04-29T22:19:40;14.70;99.90
19174;DHT22;9719;49.322;8.536;2023-04-29T22:24:43;14.60;99.90
19174;DHT22;9719;49.322;8.536;2023-04-29T22:29:45;14.60;99.90
19174;DHT22;9719;49.322;8.536;2023-04-29T22:34:47;14.60;99.90
19174;DHT22;9719;49.322;8.536;2023-04-29T22:39:50;14.60;99.90
19174;DHT22;9719;49.322;8.536;2023-04-29T22:44:51;14.60;99.90
19174;DHT22;9719;49.322;8.536;2023-04-29T22:49:53;14.60;99.90
19174;DHT22;9719;49.322;8.536;2023-04-29T22:54:56;14.70;99.90
19174;DHT22;9719;49.322;8.536;2023-04-29T22:59:58;14.70;99.90
19174;DHT22;9719;49.322;8.536;2023-04-29T23:04:59;14.70;99.90
19174;DHT22;9719;49.322;8.536;2023-04-29T23:10:03;14.70;99.90
19174;DHT22;9719;49.322;8.536;2023-04-29T23:15:05;14.70;99.90
19174;DHT22;9719;49.322;8.536;2023-04-29T23:20:07;14.70;99.90
19174;DHT22;9719;49.322;8.536;2023-04-29T23:25:10;14.70;99.90
19174;DHT22;9719;49.322;8.536;2023-04-29T23:30:12;14.70;99.90
19174;DHT22;9719;49.322;8.536;2023-04-29T23:35:14;14.70;99.90
19174;DHT22;9719;49.322;8.536;2023-04-29T23:40:17;14.60;99.90
19174;DHT22;9719;49.322;8.536;2023-04-29T23:45:18;14.60;99.90
19174;DHT22;9719;49.322;8.536;2023-04-29T23:50:20;14.60;99.90
19174;DHT22;9719;49.322;8.536;2023-04-29T23:55:23;14.50;99.90
